Dobbins Air Reserve Base Airport
KMGE : now visible

Airfield :











YOU CAN JOIN US ON...

 
LOGIN :

Register | Disclaimer

   EN    FR    IT 

 









Legend :    VFR   Marginal VFR   IFR   Intensive IFR   Very Intensive IFR
Visi :
Ceiling :
>= 8 km
>= 3000ft
5 to 8 km
1000 to 3000 ft
1500m to 5 km
500 to 1000 ft
800 to 1500m
200 to 500 ft
< 800m
< 200 ft
Symbols :   Thunderstorms  Fog  Heavy snow  Heavy precipitations  Wind > 20 kt






- Airport Elevation : 1068 ft


KMGE - Dobbins Air Reserve Base

CURRENT METAR :
  • 181715Z 13004KT 4SM -RA BKN015 OVC021 08/02 A3033 RMK AO2A $

EXPIRED METARs :
  • 181642Z 13008G15KT 10SM OVC019 08/01 A3033 RMK AO2A $
  • 181556Z 11009KT 10SM OVC020 07/00 A3034 RMK AO2A SLP279 T00710003 $
  • 181456Z 12009KT 10SM OVC020 07/M01 A3036 RMK AO2A SLP286 60000 T00651007 58013 $

TAF TAF KMGE
Valid from the 18 at 14:00 until the 19 at 20:00 UTC


181405Z 1814/1920 10012G18KT 9999 OVC020 QNH3032INS
BECMG 1816/1817 12010G15KT 9999 OVC015 QNH3012INS
BECMG 1821/1822 15009KT 8000 -SHRA BR OVC007 QNH3004INS
BECMG 1903/1904 24012G18KT 3200 -SHRA BR OVC003 QNH3006INS
BECMG 1909/1910 30015G25KT 9999 NSW FEW020 QNH3008INS TX12/1822Z TN02/1912Z



MET'MAP, your aeronautical weather chart ! - Copyright ORBIFLY December 2007 - Disclaimer

ORBIFLY MET'MAP TEAM :

Programming & Development : Alexandra Zaïnal
Concept & original design : Baudouin d'Aumeries
Assistance for programming : Marc-Olivier Méhu
Technical & hardware support : Manuel Goepfert

Contact : metmap@orbifly.com




SOURCES & CREDITS :

   NOAA       Earth
Advisory